Sullivan, New Hampshire
Current Conditions -  °F | °C
As of 10:15 AM on Friday 31 Oct 2014 (Local Time) from KEEN Reporting Station
Overcast Overcast  
Wind Chill: 43°   Ceiling: 3500
Heat Index: 43°   Visibility: 10mi
Dew Point: 30°   Wind: 0mph
Humidity: 61%   Direction: NA
Pressure: 30.04"   Gusts: NA
Location:  43.01°N, 72.22°W
Report Text: KEEN 311415Z AUTO 00000KT 10SM OVC035 06/M01 A3004 RMK AO1
Loading
Personal Weather Stations






























Interactive Weather Map
Tropical Storm Tracking
New forecast layout! Learn more

10-Day Weather Forecast

Advertisements
Track Severe Weather on mobile